createdAt,value
2019-02-27T00:02:22.680Z,28.40
2019-02-27T00:05:00.371Z,28.60
2019-02-27T00:07:41.134Z,28.60
2019-02-27T00:10:21.255Z,28.70
2019-02-27T00:13:01.535Z,28.60
2019-02-27T00:15:42.988Z,28.70
2019-02-27T00:18:23.948Z,28.80
2019-02-27T00:21:04.548Z,29.00
2019-02-27T00:23:44.108Z,29.10
2019-02-27T00:26:23.463Z,29.10
2019-02-27T00:29:02.810Z,29.10
2019-02-27T00:31:45.522Z,28.80
2019-02-27T00:34:23.328Z,28.80
2019-02-27T00:37:06.086Z,28.90
2019-02-27T00:39:46.394Z,29.20
2019-02-27T00:42:33.230Z,29.20
2019-02-27T00:45:07.027Z,29.20
2019-02-27T00:47:46.672Z,29.30
2019-02-27T00:53:59.058Z,29.40
2019-02-27T00:56:44.661Z,29.30
2019-02-27T00:59:20.534Z,29.30
2019-02-27T01:01:59.890Z,29.30
2019-02-27T01:04:40.292Z,29.50
2019-02-27T01:07:21.431Z,29.60
2019-02-27T01:10:00.844Z,30.00
2019-02-27T01:12:40.759Z,29.80
2019-02-27T01:21:54.303Z,29.60
2019-02-27T01:24:34.386Z,29.40
2019-02-27T01:27:14.271Z,29.60
2019-02-27T01:29:53.900Z,29.60
2019-02-27T01:32:39.777Z,29.60
2019-02-27T01:35:21.231Z,29.50
2019-02-27T01:38:05.088Z,29.80
2019-02-27T01:40:42.884Z,30.20
2019-02-27T01:43:22.824Z,30.20
2019-02-27T01:46:02.080Z,29.90
2019-02-27T01:48:43.598Z,29.80
2019-02-27T01:51:21.498Z,29.70
2019-02-27T01:54:00.739Z,30.00
2019-02-27T01:56:40.465Z,30.40
2019-02-27T01:59:21.796Z,30.30
2019-02-27T02:02:01.050Z,30.20
2019-02-27T02:04:41.765Z,30.10
2019-02-27T02:07:21.225Z,30.40
2019-02-27T02:10:00.514Z,30.70
2019-02-27T02:12:41.661Z,30.70
2019-02-27T02:15:48.798Z,30.60
2019-02-27T02:18:54.479Z,30.90
2019-02-27T02:21:49.226Z,31.10
2019-02-27T02:25:05.765Z,31.20
2019-02-27T02:28:15.410Z,31.20
2019-02-27T02:31:49.467Z,31.10
2019-02-27T02:35:01.148Z,31.30
2019-02-27T02:38:19.137Z,31.80
2019-02-27T02:41:30.077Z,31.70
2019-02-27T02:44:32.393Z,32.10
2019-02-27T02:47:45.590Z,32.10
2019-02-27T02:50:58.866Z,32.10
2019-02-27T02:54:41.181Z,32.60
2019-02-27T02:57:57.889Z,32.10
2019-02-27T03:01:15.504Z,32.10
2019-02-27T03:04:06.444Z,32.00
2019-02-27T03:07:19.416Z,31.90
2019-02-27T03:10:20.052Z,32.20
2019-02-27T03:13:30.568Z,32.60
2019-02-27T03:16:34.239Z,32.50
2019-02-27T03:19:14.268Z,32.20
2019-02-27T03:22:13.366Z,32.30
2019-02-27T03:25:18.368Z,32.50
2019-02-27T03:28:30.967Z,32.90
2019-02-27T03:31:57.819Z,32.50
2019-02-27T03:35:27.925Z,32.00
2019-02-27T03:38:31.520Z,32.00
2019-02-27T03:41:23.607Z,32.30
2019-02-27T03:44:30.073Z,32.50
2019-02-27T03:48:00.550Z,32.50
2019-02-27T03:51:16.982Z,32.30
2019-02-27T03:54:26.180Z,32.70
2019-02-27T03:57:42.720Z,32.90
2019-02-27T04:01:02.849Z,32.70
2019-02-27T04:04:08.457Z,32.40
2019-02-27T04:07:14.369Z,32.50
2019-02-27T04:09:56.407Z,32.10
2019-02-27T04:12:36.952Z,32.20
2019-02-27T04:15:18.082Z,32.20
2019-02-27T04:17:54.291Z,32.10
2019-02-27T04:20:33.396Z,32.60
2019-02-27T04:23:12.872Z,32.70
2019-02-27T04:25:53.612Z,32.60
2019-02-27T04:28:35.999Z,32.70
2019-02-27T04:31:18.601Z,32.30
2019-02-27T04:34:00.267Z,32.50
2019-02-27T04:36:38.614Z,32.80
2019-02-27T04:39:18.638Z,32.80
2019-02-27T04:42:10.141Z,32.50
2019-02-27T04:44:51.832Z,32.30
2019-02-27T04:47:31.301Z,32.20
2019-02-27T04:50:11.341Z,32.20
2019-02-27T04:52:51.181Z,32.30
2019-02-27T04:55:32.198Z,32.10
2019-02-27T04:58:22.502Z,32.00
2019-02-27T05:01:02.363Z,32.10
2019-02-27T05:03:46.719Z,32.40
2019-02-27T05:06:31.269Z,32.80
2019-02-27T05:09:12.806Z,33.20
2019-02-27T05:11:57.191Z,33.30
2019-02-27T05:14:37.705Z,32.70
2019-02-27T05:17:21.169Z,32.40
2019-02-27T05:19:57.808Z,32.40
2019-02-27T05:22:41.195Z,32.40
2019-02-27T05:25:24.077Z,32.40
2019-02-27T05:28:02.102Z,32.40
2019-02-27T05:30:44.784Z,32.20
2019-02-27T05:33:22.949Z,32.60
2019-02-27T05:36:02.333Z,32.80
2019-02-27T05:38:43.626Z,32.50
2019-02-27T05:41:23.470Z,32.20
2019-02-27T05:44:02.533Z,32.70
2019-02-27T05:46:43.224Z,33.10
2019-02-27T05:49:27.378Z,33.30
2019-02-27T05:52:07.795Z,32.60
2019-02-27T05:54:48.323Z,32.20
2019-02-27T05:57:29.108Z,32.60
2019-02-27T06:00:08.785Z,33.40
2019-02-27T06:02:49.135Z,33.80
2019-02-27T06:05:28.017Z,32.80
2019-02-27T06:08:07.780Z,32.80
2019-02-27T06:10:47.092Z,32.90
2019-02-27T06:13:27.571Z,33.30
2019-02-27T06:16:09.190Z,34.00
2019-02-27T06:18:48.499Z,33.70
2019-02-27T06:21:28.474Z,33.50
2019-02-27T06:24:11.656Z,33.30
2019-02-27T06:26:48.860Z,33.30
2019-02-27T06:29:29.209Z,33.30
2019-02-27T06:32:17.283Z,33.70
2019-02-27T06:34:59.281Z,34.00
2019-02-27T06:37:37.253Z,33.70
2019-02-27T06:40:18.321Z,33.80
2019-02-27T06:42:58.901Z,33.70
2019-02-27T06:45:38.446Z,34.20
2019-02-27T06:48:18.645Z,34.20
2019-02-27T06:50:58.231Z,34.40
2019-02-27T06:53:38.957Z,34.30
2019-02-27T06:56:17.891Z,34.60
2019-02-27T06:58:57.236Z,34.10
2019-02-27T07:01:36.426Z,34.10
2019-02-27T07:04:15.536Z,33.90
2019-02-27T07:07:13.078Z,33.80
2019-02-27T07:09:53.679Z,34.30
2019-02-27T07:12:32.852Z,34.40
2019-02-27T07:15:13.504Z,34.30
2019-02-27T07:17:53.919Z,34.10
2019-02-27T07:20:33.151Z,34.30
2019-02-27T07:23:12.294Z,34.60
2019-02-27T07:25:51.437Z,34.60
2019-02-27T07:28:30.908Z,34.30
2019-02-27T07:31:10.097Z,34.30
2019-02-27T07:33:49.891Z,34.30
2019-02-27T07:36:29.908Z,34.00
2019-02-27T07:39:10.401Z,33.90
2019-02-27T07:41:49.500Z,33.90
2019-02-27T07:44:34.699Z,34.10
2019-02-27T07:47:10.913Z,34.30
2019-02-27T07:49:53.276Z,33.90
2019-02-27T07:52:33.292Z,34.00
2019-02-27T07:55:21.649Z,33.70
2019-02-27T07:57:58.392Z,33.50
2019-02-27T08:00:37.347Z,33.30
2019-02-27T08:03:16.692Z,32.70
2019-02-27T08:05:59.840Z,33.00
2019-02-27T08:08:39.411Z,33.10
2019-02-27T08:11:18.507Z,33.00
2019-02-27T08:14:03.363Z,32.90
2019-02-27T08:16:42.142Z,33.10
2019-02-27T08:19:21.581Z,32.70
2019-02-27T08:22:00.778Z,32.90
2019-02-27T08:24:39.744Z,32.70
2019-02-27T08:27:19.107Z,32.60
2019-02-27T08:29:59.778Z,32.70
2019-02-27T08:32:39.653Z,32.70
2019-02-27T08:35:18.931Z,32.70
2019-02-27T08:38:02.633Z,32.40
2019-02-27T08:40:41.065Z,32.50
2019-02-27T08:43:19.686Z,32.40
2019-02-27T08:46:02.124Z,32.70
2019-02-27T08:48:39.276Z,32.60
2019-02-27T08:51:19.188Z,32.60
2019-02-27T08:53:59.281Z,32.60
2019-02-27T08:56:39.849Z,32.60
2019-02-27T08:59:21.251Z,32.50
2019-02-27T09:02:00.478Z,32.80
2019-02-27T09:04:42.831Z,32.40
2019-02-27T09:07:24.529Z,32.50
2019-02-27T09:10:14.487Z,32.20
2019-02-27T09:13:04.447Z,32.30
2019-02-27T09:15:36.318Z,32.20
2019-02-27T09:18:15.645Z,32.10
2019-02-27T09:20:55.478Z,32.20
2019-02-27T09:23:34.584Z,32.30
2019-02-27T09:26:13.785Z,32.30
2019-02-27T09:28:54.084Z,32.20
2019-02-27T09:31:34.769Z,31.90
2019-02-27T09:34:13.766Z,32.00
2019-02-27T09:36:53.084Z,32.00
2019-02-27T09:39:32.383Z,32.20
2019-02-27T09:42:11.492Z,32.00
2019-02-27T09:44:50.739Z,32.00
2019-02-27T09:47:30.147Z,31.90
2019-02-27T09:50:14.123Z,31.90
2019-02-27T09:52:53.525Z,32.20
2019-02-27T09:55:32.983Z,32.10
2019-02-27T09:58:15.594Z,32.00
2019-02-27T10:01:00.306Z,32.10
2019-02-27T10:03:38.986Z,32.20
2019-02-27T10:06:18.498Z,32.30
2019-02-27T10:08:59.076Z,32.20
2019-02-27T10:11:39.269Z,31.70
2019-02-27T10:14:19.502Z,31.70
2019-02-27T10:17:00.351Z,31.80
2019-02-27T10:19:39.662Z,31.70
2019-02-27T10:22:20.323Z,31.60
2019-02-27T10:24:59.793Z,31.30
2019-02-27T10:27:49.752Z,31.30
2019-02-27T10:30:29.281Z,31.50
2019-02-27T10:33:11.169Z,31.30
2019-02-27T10:35:51.905Z,31.20
2019-02-27T10:38:32.582Z,31.30
2019-02-27T10:41:12.077Z,31.40
2019-02-27T10:43:51.053Z,31.30
2019-02-27T10:46:30.436Z,31.10
2019-02-27T10:49:10.003Z,31.10
2019-02-27T10:51:51.197Z,31.10
2019-02-27T10:54:30.856Z,31.40
2019-02-27T10:57:10.216Z,31.30
2019-02-27T10:59:51.876Z,31.10
2019-02-27T11:02:31.701Z,30.90
2019-02-27T11:05:11.418Z,30.90
2019-02-27T11:07:53.064Z,31.00
2019-02-27T11:10:32.974Z,31.10
2019-02-27T11:13:12.279Z,31.00
2019-02-27T11:15:51.401Z,31.00
2019-02-27T11:18:31.109Z,30.80
2019-02-27T11:21:14.419Z,31.00
2019-02-27T11:23:57.850Z,31.00
2019-02-27T11:26:43.236Z,30.80
2019-02-27T11:29:27.867Z,30.60
2019-02-27T11:32:09.707Z,30.60
2019-02-27T11:34:52.116Z,30.70
2019-02-27T11:37:35.427Z,30.80
2019-02-27T11:40:24.203Z,30.40
2019-02-27T11:43:07.651Z,30.40
2019-02-27T11:45:51.521Z,30.60
2019-02-27T11:48:31.840Z,30.60
2019-02-27T11:51:13.962Z,30.50
2019-02-27T11:53:53.867Z,30.40
2019-02-27T11:56:34.820Z,30.40
2019-02-27T11:59:15.512Z,30.40
2019-02-27T12:01:56.261Z,30.20
2019-02-27T12:04:35.295Z,29.90
2019-02-27T12:07:17.228Z,30.00
2019-02-27T12:09:55.799Z,29.90
2019-02-27T12:12:35.144Z,29.90
2019-02-27T12:15:15.721Z,29.90
2019-02-27T12:17:59.977Z,29.90
2019-02-27T12:20:36.444Z,29.80
2019-02-27T14:43:10.127Z,29.20
2019-02-27T14:45:50.907Z,29.20
2019-02-27T14:48:30.100Z,29.40
2019-02-27T14:51:11.073Z,29.30
2019-02-27T14:53:51.929Z,29.30
2019-02-27T14:56:29.380Z,29.20
2019-02-27T14:59:09.767Z,29.30
2019-02-27T15:01:49.226Z,29.20
2019-02-27T15:04:28.902Z,29.30
2019-02-27T15:07:08.097Z,29.20
2019-02-27T15:09:47.972Z,29.30
2019-02-27T15:12:25.771Z,29.20
2019-02-27T15:15:09.461Z,29.30
2019-02-27T15:17:51.212Z,29.30
2019-02-27T15:20:29.675Z,29.20
2019-02-27T15:23:09.592Z,29.30
2019-02-27T15:25:48.338Z,29.40
2019-02-27T15:28:32.915Z,29.40
2019-02-27T15:31:10.067Z,29.20
2019-02-27T15:33:48.321Z,29.20
2019-02-27T15:36:37.530Z,29.30
2019-02-27T15:39:20.274Z,29.30
2019-02-27T15:41:58.961Z,29.20
2019-02-27T15:44:40.262Z,29.20
2019-02-27T15:47:20.539Z,29.30
2019-02-27T15:50:02.698Z,29.50
2019-02-27T15:52:44.484Z,29.40
2019-02-27T15:55:38.765Z,29.20
2019-02-27T15:58:18.260Z,29.30
2019-02-27T16:00:56.871Z,29.40
2019-02-27T16:03:34.833Z,29.40
2019-02-27T16:06:27.215Z,29.20
2019-02-27T16:09:11.159Z,29.10
2019-02-27T16:11:51.487Z,29.30
2019-02-27T16:14:31.841Z,29.30
2019-02-27T16:17:19.164Z,29.30
2019-02-27T16:19:59.515Z,29.10
2019-02-27T16:23:29.499Z,29.10
2019-02-27T16:26:12.626Z,29.20
2019-02-27T16:28:54.368Z,29.20
2019-02-27T16:31:31.984Z,29.00
2019-02-27T16:34:12.361Z,29.00
2019-02-27T16:36:49.991Z,29.10
2019-02-27T16:39:27.743Z,29.10
2019-02-27T16:42:06.250Z,29.00
2019-02-27T16:44:46.033Z,29.10
2019-02-27T16:47:25.046Z,29.10
2019-02-27T16:50:03.058Z,29.10
2019-02-27T16:52:43.936Z,29.10
2019-02-27T16:55:23.510Z,29.10
2019-02-27T16:58:03.312Z,29.20
2019-02-27T17:00:42.223Z,29.10
2019-02-27T17:03:21.129Z,29.00
2019-02-27T17:05:59.804Z,29.10
2019-02-27T17:08:45.267Z,29.10
2019-02-27T17:11:23.029Z,29.10
2019-02-27T17:14:01.244Z,28.90
2019-02-27T17:16:44.360Z,28.80
2019-02-27T17:19:21.987Z,29.10
2019-02-27T17:22:00.362Z,29.20
2019-02-27T17:24:39.846Z,29.10
2019-02-27T17:27:18.526Z,28.90
2019-02-27T17:29:59.801Z,29.00
2019-02-27T17:32:37.147Z,29.30
2019-02-27T17:35:15.561Z,29.20
2019-02-27T17:37:54.631Z,29.00
2019-02-27T17:40:37.652Z,28.90
2019-02-27T17:43:17.365Z,29.00
2019-02-27T17:45:59.993Z,29.20
2019-02-27T17:48:39.406Z,29.10
2019-02-27T17:51:19.752Z,29.00
2019-02-27T17:53:57.970Z,29.10
2019-02-27T17:56:39.296Z,29.20
2019-02-27T17:59:18.547Z,29.20
2019-02-27T18:01:58.732Z,29.10
2019-02-27T18:04:37.725Z,29.00
2019-02-27T18:07:15.685Z,28.90
2019-02-27T18:09:54.636Z,29.00
2019-02-27T18:12:38.196Z,29.00
2019-02-27T18:15:20.140Z,29.00
2019-02-27T18:17:57.240Z,29.00
2019-02-27T18:20:36.498Z,29.00
2019-02-27T18:23:21.986Z,29.00
2019-02-27T18:25:59.622Z,28.80
2019-02-27T18:28:40.249Z,28.90
2019-02-27T18:31:19.715Z,28.80
2019-02-27T18:33:59.501Z,28.90
2019-02-27T18:36:42.741Z,29.00
2019-02-27T18:39:20.710Z,29.00
2019-02-27T18:41:58.565Z,29.00
2019-02-27T18:44:38.334Z,29.00
2019-02-27T18:47:19.225Z,29.10
2019-02-27T18:49:57.272Z,28.90
2019-02-27T18:52:38.206Z,29.00
2019-02-27T18:55:16.323Z,29.10
2019-02-27T18:57:54.895Z,29.20
2019-02-27T19:00:36.256Z,29.10
2019-02-27T19:03:19.519Z,29.00
2019-02-27T19:05:57.830Z,28.80
2019-02-27T19:08:37.595Z,28.90
2019-02-27T19:11:16.010Z,28.90
2019-02-27T19:13:55.197Z,28.80
2019-02-27T19:16:34.498Z,28.80
2019-02-27T19:19:13.773Z,28.90
2019-02-27T19:21:55.335Z,29.00
2019-02-27T19:24:34.169Z,29.00
2019-02-27T19:27:12.004Z,28.90
2019-02-27T19:29:50.087Z,28.80
2019-02-27T19:32:29.870Z,28.90
2019-02-27T19:35:09.079Z,29.00
2019-02-27T19:37:48.238Z,29.10
2019-02-27T19:40:29.900Z,28.90
2019-02-27T19:43:07.855Z,28.80
2019-02-27T19:45:46.740Z,29.00
2019-02-27T19:48:26.258Z,29.00
2019-02-27T19:51:04.974Z,29.10
2019-02-27T19:53:42.839Z,28.80
2019-02-27T19:56:21.810Z,28.80
2019-02-27T19:58:59.890Z,29.00
2019-02-27T20:01:42.816Z,28.90
2019-02-27T20:04:19.650Z,28.90
2019-02-27T20:07:01.807Z,28.70
2019-02-27T20:09:39.914Z,28.80
2019-02-27T20:12:19.462Z,28.90
2019-02-27T20:14:58.104Z,29.10
2019-02-27T20:17:36.492Z,28.90
2019-02-27T20:20:15.958Z,28.70
2019-02-27T20:22:54.599Z,28.90
2019-02-27T20:25:32.953Z,29.00
2019-02-27T20:28:17.419Z,29.10
2019-02-27T20:30:56.586Z,28.90
2019-02-27T20:33:37.196Z,28.80
2019-02-27T20:36:16.291Z,29.00
2019-02-27T20:38:56.345Z,29.10
2019-02-27T20:41:34.497Z,28.90
2019-02-27T20:44:12.593Z,28.60
2019-02-27T20:46:51.123Z,28.60
2019-02-27T20:49:30.700Z,28.70
2019-02-27T20:52:14.702Z,28.80
2019-02-27T20:54:48.705Z,28.70
2019-02-27T20:57:28.097Z,28.60
2019-02-27T21:00:08.000Z,28.50
2019-02-27T21:02:50.301Z,28.50
2019-02-27T21:05:27.368Z,28.70
2019-02-27T21:08:08.345Z,28.70
2019-02-27T21:10:54.923Z,28.60
2019-02-27T21:13:31.110Z,28.50
2019-02-27T21:16:13.789Z,28.60
2019-02-27T21:18:52.360Z,28.80
2019-02-27T21:21:32.782Z,28.80
2019-02-27T21:24:13.229Z,28.60
2019-02-27T21:26:50.890Z,28.50
2019-02-27T21:29:29.799Z,28.70
2019-02-27T21:32:10.109Z,28.80
2019-02-27T21:34:49.487Z,28.80
2019-02-27T21:37:28.120Z,28.60
2019-02-27T21:40:09.541Z,28.60
2019-02-27T21:42:52.001Z,28.70
2019-02-27T21:45:37.258Z,28.90
2019-02-27T21:48:16.635Z,28.70
2019-02-27T21:50:57.305Z,28.60
2019-02-27T21:53:37.868Z,28.60
2019-02-27T21:56:18.051Z,28.60
2019-02-27T21:58:56.757Z,28.60
2019-02-27T22:01:37.196Z,28.60
2019-02-27T22:04:19.497Z,28.50
2019-02-27T22:06:59.298Z,28.40
2019-02-27T22:09:44.584Z,28.50
2019-02-27T22:12:27.067Z,28.50
2019-02-27T22:15:07.430Z,28.60
2019-02-27T22:17:46.424Z,28.50
2019-02-27T22:20:27.121Z,28.50
2019-02-27T22:23:07.402Z,28.40
2019-02-27T22:25:47.601Z,28.60
2019-02-27T22:28:28.860Z,28.60
2019-02-27T22:31:07.759Z,28.50
2019-02-27T22:34:03.132Z,28.30
2019-02-27T22:36:54.055Z,28.40
2019-02-27T22:39:39.909Z,28.60
2019-02-27T22:42:24.093Z,28.60
2019-02-27T22:45:04.241Z,28.40
2019-02-27T22:47:45.958Z,28.20
2019-02-27T22:50:26.604Z,28.30
2019-02-27T22:53:18.214Z,28.60
2019-02-27T22:55:58.740Z,28.60
2019-02-27T22:58:37.663Z,28.50
2019-02-27T23:01:33.030Z,28.30
2019-02-27T23:04:15.716Z,28.40
2019-02-27T23:06:54.021Z,28.50
2019-02-27T23:09:33.665Z,28.50
2019-02-27T23:12:12.407Z,28.50
2019-02-27T23:14:52.986Z,28.30
2019-02-27T23:17:32.550Z,28.30
2019-02-27T23:20:11.733Z,28.30
2019-02-27T23:22:53.263Z,28.50
2019-02-27T23:25:34.265Z,28.60
2019-02-27T23:28:16.230Z,28.40
2019-02-27T23:30:55.485Z,28.30
2019-02-27T23:33:35.972Z,28.40
2019-02-27T23:36:13.030Z,28.50
2019-02-27T23:38:51.790Z,28.50
2019-02-27T23:41:32.034Z,28.50
2019-02-27T23:44:12.246Z,28.30
2019-02-27T23:46:57.228Z,28.40
2019-02-27T23:49:33.619Z,28.40
2019-02-27T23:52:15.080Z,28.60
2019-02-27T23:54:54.094Z,28.40
2019-02-27T23:57:33.609Z,28.30
